Time;durP1;ratioP1;P1;durP2;ratioP2;P2;SDS_P1;SDS_P2;PMS_P1;PMS_P2;Temp;Humidity;BMP_temperature;BMP_pressure;BME280_temperature;BME280_humidity;BME280_pressure;Samples;Min_cycle;Max_cycle;Signal;HPM_P1;HPM_P2
2024/03/08 00:09:59;;;;;;;61.00;23.60;;;;;;;0.45;67.67;101345.26;682021;1265;138919;-78
2024/03/08 00:25:04;;;;;;;61.60;19.60;;;;;;;0.35;67.94;101328.48;681962;1261;139779;-78
2024/03/08 00:40:09;;;;;;;68.50;23.50;;;;;;;0.06;68.26;101324.16;681771;1261;139730;-78
2024/03/08 00:55:12;;;;;;;;;;;;;;;0.00;68.77;101325.16;681904;1266;138867;-79
2024/03/08 01:10:16;;;;;;;53.90;19.80;;;;;;;-0.03;69.00;101315.29;681807;1265;125174;-79
2024/03/08 01:25:20;;;;;;;51.60;20.90;;;;;;;-0.03;69.09;101305.13;681963;1262;139914;-79
2024/03/08 01:40:23;;;;;;;52.00;18.90;;;;;;;-0.15;69.28;101294.45;681743;1265;139821;-78
2024/03/08 01:55:27;;;;;;;38.70;17.10;;;;;;;-0.25;69.44;101294.38;681853;1265;138885;-79
2024/03/08 02:10:32;;;;;;;42.40;16.40;;;;;;;-0.38;70.12;101280.43;681781;1267;140064;-79
2024/03/08 02:25:42;;;;;;;44.60;18.50;;;;;;;0.15;68.80;101269.80;681888;1265;139159;-79
2024/03/08 02:40:46;;;;;;;67.40;22.20;;;;;;;0.87;66.11;101260.84;681702;1277;139389;-79
2024/03/08 02:55:50;;;;;;;52.80;21.30;;;;;;;0.82;65.69;101255.80;681936;1277;139424;-79
2024/03/08 03:10:53;;;;;;;70.80;28.30;;;;;;;0.74;65.11;101249.88;681711;1266;144967;-79
2024/03/08 03:25:57;;;;;;;77.90;27.80;;;;;;;0.65;65.09;101245.50;681772;1264;140350;-79
2024/03/08 03:41:09;;;;;;;72.30;26.90;;;;;;;0.56;65.04;101238.53;681816;1266;140403;-79
2024/03/08 03:56:13;;;;;;;59.00;20.70;;;;;;;0.42;64.65;101235.88;681938;1263;141158;-80
2024/03/08 04:11:17;;;;;;;70.60;26.60;;;;;;;0.33;64.80;101227.38;681751;1266;140659;-79
2024/03/08 04:26:21;;;;;;;65.50;25.00;;;;;;;0.19;64.92;101222.45;681920;1262;142178;-79
2024/03/08 04:41:25;;;;;;;44.30;19.40;;;;;;;0.03;64.90;101214.66;681896;1265;140468;-79
2024/03/08 04:56:28;;;;;;;62.20;22.40;;;;;;;-0.02;65.10;101206.73;682039;1265;140422;-79
2024/03/08 05:11:31;;;;;;;63.50;22.40;;;;;;;-0.09;65.49;101203.31;681970;1266;140355;-79
2024/03/08 05:26:34;;;;;;;227.60;53.60;;;;;;;-0.05;65.69;101204.38;682402;1265;140769;-78
2024/03/08 05:41:40;;;;;;;203.00;54.80;;;;;;;-0.02;65.59;101202.76;682294;1264;139496;-79
2024/03/08 05:56:43;;;;;;;95.90;34.90;;;;;;;0.06;65.45;101201.85;682488;1263;140102;-79
2024/03/08 06:11:48;;;;;;;167.30;44.60;;;;;;;0.20;65.87;101202.30;682115;1265;139600;-79
2024/03/08 06:26:53;;;;;;;187.50;57.00;;;;;;;1.26;66.85;101205.80;682224;1261;139317;-80
2024/03/08 06:41:56;;;;;;;136.30;55.10;;;;;;;5.94;67.47;101206.75;682192;1264;139918;-80
2024/03/08 06:57:00;;;;;;;103.30;48.10;;;;;;;10.83;64.36;101208.48;681763;1274;138993;-78
2024/03/08 07:12:04;;;;;;;213.70;95.80;;;;;;;12.85;59.43;101213.61;681671;1266;140450;-79
2024/03/08 07:27:07;;;;;;;193.00;93.00;;;;;;;13.77;55.70;101211.85;681838;1267;138920;-80
2024/03/08 07:42:11;;;;;;;160.90;81.20;;;;;;;12.21;53.03;101209.01;681446;1267;140089;-79
2024/03/08 07:57:15;;;;;;;128.50;61.10;;;;;;;9.11;54.74;101202.23;681580;1266;139664;-79
2024/03/08 08:12:19;;;;;;;79.20;41.10;;;;;;;12.78;55.32;101200.14;681321;1264;175669;-80
2024/03/08 08:27:26;;;;;;;65.70;35.00;;;;;;;16.60;52.31;101189.00;681753;1266;138216;-80
2024/03/08 08:42:29;;;;;;;20.90;11.00;;;;;;;17.39;47.85;101182.23;681554;1266;140237;-78
2024/03/08 08:57:33;;;;;;;32.60;15.90;;;;;;;17.58;45.49;101174.50;681778;1264;138311;-80
2024/03/08 09:12:38;;;;;;;22.50;13.60;;;;;;;17.90;44.71;101166.49;681590;1266;139861;-80
2024/03/08 09:27:41;;;;;;;21.70;13.80;;;;;;;18.52;44.25;101158.20;681702;1262;138316;-78
2024/03/08 09:42:47;;;;;;;26.10;14.40;;;;;;;18.67;43.90;101156.27;681540;1262;140383;-78
2024/03/08 10:13:19;;;;;;;202.30;74.90;;;;;;;18.31;42.56;101138.36;681556;1266;138253;-79
2024/03/08 10:28:24;;;;;;;16.70;9.60;;;;;;;18.17;41.73;101135.39;681704;1263;139763;-77
2024/03/08 10:43:37;;;;;;;15.60;8.30;;;;;;;18.94;42.02;101127.44;681971;1267;138171;-78
2024/03/08 10:58:44;;;;;;;11.60;6.90;;;;;;;19.05;42.07;101113.86;681785;1266;138196;-77
2024/03/08 11:13:48;;;;;;;17.60;8.40;;;;;;;18.39;40.96;101100.32;681470;1262;139747;-78
2024/03/08 11:28:53;;;;;;;13.60;7.50;;;;;;;17.48;40.61;101079.43;681868;1264;138803;-79
2024/03/08 11:44:07;;;;;;;12.50;6.90;;;;;;;16.92;40.85;101066.36;681546;1264;138474;-80
2024/03/08 11:59:14;;;;;;;12.20;7.80;;;;;;;16.14;41.20;101053.33;681688;1266;138277;-79
2024/03/08 12:14:18;;;;;;;17.60;8.20;;;;;;;15.41;41.96;101041.60;681607;1262;139927;-79
2024/03/08 12:29:27;;;;;;;10.50;6.50;;;;;;;15.67;41.88;101030.54;681640;1264;138380;-79
2024/03/08 12:44:31;;;;;;;14.70;6.80;;;;;;;15.07;40.27;101021.29;681488;1263;138985;-79
2024/03/08 12:59:35;;;;;;;10.20;5.30;;;;;;;14.79;41.17;101000.74;681620;1266;139508;-78
2024/03/08 13:14:41;;;;;;;10.10;5.30;;;;;;;14.46;40.70;100997.15;681528;1262;138257;-79
2024/03/08 13:29:47;;;;;;;10.30;5.50;;;;;;;14.27;40.74;100973.84;681719;1264;138288;-80
2024/03/08 13:44:51;;;;;;;13.60;7.10;;;;;;;13.93;40.65;100961.88;681731;1262;139262;-78
2024/03/08 13:59:54;;;;;;;18.30;7.60;;;;;;;13.85;41.08;100942.52;681734;1263;138746;-79
2024/03/08 14:14:59;;;;;;;38.50;18.90;;;;;;;13.50;41.90;100928.67;681602;1264;138711;-79
2024/03/08 14:30:04;;;;;;;20.30;9.10;;;;;;;13.39;42.69;100922.80;681617;1262;139094;-78
2024/03/08 14:45:14;;;;;;;41.80;20.30;;;;;;;13.17;43.04;100910.98;681521;1267;138293;-78
2024/03/08 15:00:34;;;;;;;48.60;23.70;;;;;;;13.10;43.45;100903.25;681739;1264;138234;-78
2024/03/08 15:15:42;;;;;;;30.90;12.20;;;;;;;12.74;44.27;100889.66;681384;1266;138626;-78
2024/03/08 15:30:51;;;;;;;44.00;22.60;;;;;;;12.37;45.25;100881.23;681809;1265;138280;-78
2024/03/08 15:45:55;;;;;;;75.50;34.20;;;;;;;11.88;46.50;100873.97;681763;1265;139098;-79
2024/03/08 16:00:59;;;;;;;99.60;45.70;;;;;;;11.35;46.77;100868.69;681768;1262;138765;-80
2024/03/08 16:16:03;;;;;;;135.90;51.80;;;;;;;10.75;47.69;100862.34;681807;1266;138915;-80
2024/03/08 16:31:07;;;;;;;79.60;29.70;;;;;;;10.03;48.14;100856.86;681922;1261;138707;-81
2024/03/08 16:46:13;;;;;;;196.70;72.80;;;;;;;9.18;48.65;100860.59;681742;1262;138288;-80
2024/03/08 17:01:18;;;;;;;210.80;90.90;;;;;;;8.32;49.94;100864.17;681774;1260;138036;-81
2024/03/08 17:16:24;;;;;;;283.70;115.80;;;;;;;7.61;51.29;100862.86;681685;1264;139805;-81
2024/03/08 17:31:32;;;;;;;412.40;143.90;;;;;;;7.03;52.35;100860.48;682132;1264;138210;-81
2024/03/08 17:46:37;;;;;;;233.60;76.70;;;;;;;6.63;52.67;100858.64;681987;1264;139055;-81
2024/03/08 18:01:44;;;;;;;212.50;70.10;;;;;;;6.06;53.08;100856.04;682036;1262;139012;-81
2024/03/08 18:16:49;;;;;;;288.50;85.60;;;;;;;5.56;53.88;100854.23;682051;1264;138476;-82
2024/03/08 18:31:53;;;;;;;52.30;21.30;;;;;;;5.03;54.47;100855.51;682038;1264;140000;-81
2024/03/08 18:46:57;;;;;;;358.10;137.00;;;;;;;4.58;54.64;100855.33;682522;1264;139637;-81
2024/03/08 19:02:03;;;;;;;155.50;57.60;;;;;;;4.31;55.27;100856.44;682033;1264;139674;-81
2024/03/08 19:17:10;;;;;;;166.20;52.50;;;;;;;4.07;55.83;100848.98;681887;1265;140307;-81
2024/03/08 19:32:14;;;;;;;285.40;84.60;;;;;;;3.80;56.50;100842.08;681825;1260;139061;-81
2024/03/08 19:47:18;;;;;;;184.50;60.70;;;;;;;3.67;56.99;100842.19;682067;1261;139703;-81
2024/03/08 20:02:26;;;;;;;287.50;86.40;;;;;;;3.36;57.60;100843.91;681865;1265;138986;-81
2024/03/08 20:17:29;;;;;;;179.80;54.90;;;;;;;2.78;58.90;100845.77;681763;1265;179897;-80
2024/03/08 20:32:32;;;;;;;221.70;59.30;;;;;;;2.49;59.94;100837.95;681953;1264;139273;-80
2024/03/08 20:47:41;;;;;;;460.20;141.90;;;;;;;2.41;60.16;100837.64;682142;1263;139086;-80
2024/03/08 21:02:46;;;;;;;423.40;131.40;;;;;;;2.21;60.88;100829.34;681896;1265;139272;-79
2024/03/08 21:17:53;;;;;;;182.70;57.40;;;;;;;1.81;61.77;100811.77;681933;1264;138823;-80
2024/03/08 21:33:10;;;;;;;324.80;94.80;;;;;;;1.67;62.69;100802.71;681816;1264;139087;-80
2024/03/08 21:48:15;;;;;;;436.70;131.30;;;;;;;1.45;63.10;100792.27;681895;1265;140089;-80
2024/03/08 22:03:21;;;;;;;425.40;124.00;;;;;;;1.18;63.78;100776.98;681835;1264;139460;-80
2024/03/08 22:18:30;;;;;;;;;;;;;;;1.07;64.04;100772.42;681749;1265;139563;-79
2024/03/08 22:33:33;;;;;;;101.70;34.30;;;;;;;0.84;64.28;100767.15;681771;1261;125080;-80
2024/03/08 22:48:37;;;;;;;224.10;71.70;;;;;;;0.81;64.77;100765.05;681873;1265;139280;-79
2024/03/08 23:03:42;;;;;;;439.00;123.70;;;;;;;0.71;65.09;100756.46;681743;1264;139175;-79
2024/03/08 23:18:48;;;;;;;431.70;128.00;;;;;;;0.54;65.29;100757.12;681743;1265;139380;-80
2024/03/08 23:33:51;;;;;;;484.80;135.20;;;;;;;0.49;65.38;100755.05;681985;1266;140104;-80
2024/03/08 23:48:55;;;;;;;362.20;107.30;;;;;;;0.38;65.47;100748.27;681946;1273;139335;-80
